createdAt,value
2023-02-23T00:00:02.918Z,90.94
2023-02-23T00:15:02.008Z,90.94
2023-02-23T00:30:01.684Z,90.94
2023-02-23T00:45:02.232Z,90.94
2023-02-23T01:00:02.815Z,90.94
2023-02-23T01:15:01.511Z,90.94
2023-02-23T01:30:01.985Z,90.94
2023-02-23T01:45:02.070Z,90.94
2023-02-23T02:00:02.736Z,90.94
2023-02-23T02:15:03.286Z,90.94
2023-02-23T02:30:01.620Z,90.94
2023-02-23T02:45:02.135Z,90.94
2023-02-23T03:00:02.710Z,90.94
2023-02-23T03:15:01.834Z,90.94
2023-02-23T03:30:02.237Z,90.94
2023-02-23T03:45:02.074Z,90.94
2023-02-23T04:00:02.691Z,90.94
2023-02-23T04:15:01.376Z,90.94
2023-02-23T04:30:01.746Z,90.94
2023-02-23T04:45:02.184Z,90.94
2023-02-23T05:00:01.440Z,90.94
2023-02-23T05:15:03.341Z,90.94
2023-02-23T05:30:01.666Z,90.94
2023-02-23T05:45:02.180Z,90.94
2023-02-23T06:00:02.734Z,90.94
2023-02-23T06:15:03.217Z,90.94
2023-02-23T06:30:01.551Z,90.94
2023-02-23T06:45:02.018Z,90.94
2023-02-23T07:00:02.635Z,90.94
2023-02-23T07:15:03.143Z,90.94
2023-02-23T07:30:01.537Z,90.94
2023-02-23T07:45:02.024Z,90.94
2023-02-23T08:00:02.633Z,90.94
2023-02-23T08:15:03.161Z,90.94
2023-02-23T08:30:01.483Z,90.94
2023-02-23T08:45:01.973Z,90.94
2023-02-23T09:00:02.540Z,90.94
2023-02-23T09:15:03.120Z,90.94
2023-02-23T09:30:01.434Z,90.94
2023-02-23T09:45:01.868Z,90.94
2023-02-23T10:00:02.491Z,90.94
2023-02-23T10:15:03.059Z,90.94
2023-02-23T10:30:01.460Z,90.94
2023-02-23T10:45:01.950Z,90.94
2023-02-23T11:00:02.562Z,90.94
2023-02-23T11:15:02.741Z,90.94
2023-02-23T11:30:02.055Z,90.94
2023-02-23T11:45:01.585Z,90.94
2023-02-23T12:00:02.190Z,90.94
2023-02-23T12:15:01.481Z,90.94
2023-02-23T12:30:01.822Z,90.94
2023-02-23T12:45:02.143Z,90.94
2023-02-23T13:00:01.510Z,60.71
2023-02-23T13:15:02.577Z,71.27
2023-02-23T13:30:02.047Z,76.37
2023-02-23T13:45:01.332Z,78.3
2023-02-23T14:00:01.838Z,68.84
2023-02-23T14:15:02.427Z,74.51
2023-02-23T14:30:02.855Z,74.51
2023-02-23T14:45:02.019Z,0
2023-02-23T15:00:02.459Z,0
2023-02-23T15:15:01.400Z,0
2023-02-23T15:30:01.778Z,0
2023-02-23T15:45:02.098Z,0
2023-02-23T16:00:02.449Z,0
2023-02-23T16:15:03.067Z,0
2023-02-23T16:30:01.452Z,0
2023-02-23T16:45:02.062Z,0
2023-02-23T17:00:02.491Z,0
2023-02-23T17:15:03.081Z,0
2023-02-23T17:30:01.372Z,0
2023-02-23T20:00:02.478Z,0
2023-02-23T20:15:02.925Z,0
2023-02-23T20:30:01.644Z,0
2023-02-23T20:45:01.960Z,0
2023-02-23T21:00:02.427Z,0
2023-02-23T21:15:02.966Z,0
2023-02-23T21:30:01.499Z,0
2023-02-23T21:45:01.793Z,0
2023-02-23T22:00:02.408Z,0
2023-02-23T22:15:01.750Z,0
2023-02-23T22:30:02.201Z,0
2023-02-23T22:45:01.855Z,0
2023-02-23T23:00:01.843Z,112.27
2023-02-23T23:15:02.118Z,111.14
2023-02-23T23:30:01.445Z,112.35
2023-02-23T23:45:02.191Z,110.77
